Time;durP1;ratioP1;P1;durP2;ratioP2;P2;SDS_P1;SDS_P2;PMS_P1;PMS_P2;Temp;Humidity;BMP_temperature;BMP_pressure;BME280_temperature;BME280_humidity;BME280_pressure;Samples;Min_cycle;Max_cycle;Signal;HPM_P1;HPM_P2
2022/01/08 00:02:23;;;;;;;2.67;2.20;;;3.80;99.50;;;;;;4975050;28;20210;-84
2022/01/08 00:04:49;;;;;;;2.73;2.30;;;3.80;99.80;;;;;;4978195;28;20207;-84
2022/01/08 00:07:15;;;;;;;5.37;2.40;;;3.70;99.60;;;;;;4976759;28;20222;-85
2022/01/08 00:09:40;;;;;;;2.30;1.80;;;3.80;99.50;;;;;;4985274;28;20254;-85
2022/01/08 00:12:07;;;;;;;4.07;2.40;;;3.80;99.00;;;;;;4975267;28;20191;-85
2022/01/08 00:14:32;;;;;;;6.10;2.20;;;3.90;99.50;;;;;;4980878;28;20195;-84
2022/01/08 00:16:58;;;;;;;4.97;2.40;;;3.90;98.40;;;;;;4974951;28;20278;-85
2022/01/08 00:19:24;;;;;;;4.43;2.67;;;3.90;99.10;;;;;;4984033;28;20254;-85
2022/01/08 00:21:50;;;;;;;4.43;2.20;;;4.00;98.70;;;;;;4983509;28;20195;-85
2022/01/08 00:24:16;;;;;;;5.10;2.30;;;4.00;99.30;;;;;;4981389;28;20261;-86
2022/01/08 00:26:42;;;;;;;3.43;2.17;;;4.10;98.90;;;;;;4979174;28;20196;-85
2022/01/08 00:29:08;;;;;;;5.47;2.40;;;4.00;99.90;;;;;;4977235;28;20221;-85
2022/01/08 00:31:34;;;;;;;4.60;2.30;;;4.00;99.90;;;;;;4977555;28;20191;-85
2022/01/08 00:34:00;;;;;;;2.83;2.17;;;4.00;99.90;;;;;;4982579;28;20218;-84
2022/01/08 00:36:26;;;;;;;5.00;2.87;;;4.00;99.50;;;;;;4985045;28;20194;-85
2022/01/08 00:38:51;;;;;;;3.90;2.27;;;4.10;99.60;;;;;;4979513;28;20210;-84
2022/01/08 00:41:17;;;;;;;5.07;2.37;;;4.10;99.80;;;;;;4982502;28;20706;-84
2022/01/08 00:43:43;;;;;;;2.13;1.90;;;4.20;99.50;;;;;;4984784;23;20265;-86
2022/01/08 00:46:09;;;;;;;2.83;2.13;;;4.20;98.60;;;;;;4959262;28;20601;-86
2022/01/08 00:48:34;;;;;;;4.17;2.00;;;4.20;99.10;;;;;;4952831;28;20211;-86
2022/01/08 00:51:00;;;;;;;3.53;1.70;;;4.40;98.00;;;;;;4955873;29;20204;-85
2022/01/08 00:53:26;;;;;;;2.67;2.00;;;4.30;99.40;;;;;;4955452;28;20227;-85
2022/01/08 00:55:52;;;;;;;4.43;2.20;;;4.30;99.70;;;;;;4952935;28;20196;-86
2022/01/08 00:58:18;;;;;;;7.90;2.33;;;4.30;99.20;;;;;;4954605;28;20203;-86
2022/01/08 01:00:43;;;;;;;4.07;2.20;;;4.30;99.50;;;;;;4957382;28;20209;-86
2022/01/08 01:03:09;;;;;;;4.53;2.80;;;4.40;99.00;;;;;;4955200;28;20230;-87
2022/01/08 01:05:35;;;;;;;3.83;2.00;;;4.40;99.90;;;;;;4949915;28;20200;-86
2022/01/08 01:08:01;;;;;;;4.67;2.17;;;4.40;99.90;;;;;;4972011;28;20264;-87
2022/01/08 01:10:27;;;;;;;3.80;1.70;;;4.50;99.50;;;;;;4961625;28;20201;-85
2022/01/08 01:12:53;;;;;;;3.37;2.07;;;4.40;99.90;;;;;;4958443;29;20203;-85
2022/01/08 01:15:19;;;;;;;2.60;1.37;;;4.50;99.90;;;;;;4959645;29;20193;-86
2022/01/08 01:17:46;;;;;;;2.77;1.67;;;4.40;99.60;;;;;;4957587;28;20214;-86
2022/01/08 01:20:15;;;;;;;2.73;1.80;;;4.40;99.90;;;;;;4950747;28;20195;-86
2022/01/08 01:22:52;;;;;;;4.00;2.17;;;4.40;99.90;;;;;;4958592;28;20560;-86
2022/01/08 01:25:24;;;;;;;3.33;1.90;;;4.40;99.80;;;;;;4957031;28;20215;-85
2022/01/08 01:28:07;;;;;;;3.37;2.07;;;4.40;98.60;;;;;;4956086;29;20184;-87
2022/01/08 01:41:07;;;;;;;3.47;1.80;;;4.60;99.10;;;;;;4955341;29;20662;-86
2022/01/08 01:47:03;;;;;;;3.80;1.93;;;4.20;99.90;;;;;;4958037;28;20192;-86
2022/01/08 01:49:34;;;;;;;3.00;1.77;;;4.30;99.90;;;;;;4976045;28;20196;-85
2022/01/08 01:52:01;;;;;;;2.67;1.80;;;4.20;99.90;;;;;;4965364;29;20459;-86
2022/01/08 01:54:28;;;;;;;3.63;1.90;;;4.10;99.90;;;;;;4972059;28;20223;-85
2022/01/08 01:56:57;;;;;;;4.60;1.90;;;4.00;99.90;;;;;;4967434;28;20199;-85
2022/01/08 01:59:26;;;;;;;5.90;1.93;;;4.10;99.90;;;;;;4964681;28;20193;-85
2022/01/08 02:01:52;;;;;;;3.20;1.70;;;4.10;99.90;;;;;;4955785;29;20200;-85
2022/01/08 02:04:18;;;;;;;2.30;1.50;;;4.10;99.90;;;;;;4954442;28;20238;-85
2022/01/08 02:06:44;;;;;;;4.77;2.00;;;4.00;99.90;;;;;;4958157;28;20608;-86
2022/01/08 02:09:10;;;;;;;6.57;2.13;;;4.00;99.90;;;;;;4955957;29;20227;-86
2022/01/08 02:11:54;;;;;;;3.97;2.10;;;3.90;99.90;;;;;;4956361;28;20250;-85
2022/01/08 02:14:20;;;;;;;4.27;1.83;;;3.90;99.90;;;;;;4955276;28;20256;-85
2022/01/08 02:16:46;;;;;;;2.70;1.90;;;4.00;99.90;;;;;;4958128;28;20675;-86
2022/01/08 02:19:12;;;;;;;3.23;1.60;;;3.90;99.90;;;;;;4953236;28;20256;-86
2022/01/08 02:21:37;;;;;;;2.10;1.73;;;3.90;99.90;;;;;;4957333;28;20579;-85
2022/01/08 02:24:03;;;;;;;2.47;1.57;;;3.80;99.90;;;;;;4959332;28;20227;-85
2022/01/08 02:26:29;;;;;;;2.53;1.63;;;3.80;99.90;;;;;;4952116;28;20203;-86
2022/01/08 02:28:55;;;;;;;1.70;1.60;;;3.70;99.90;;;;;;4954623;29;20211;-85
2022/01/08 02:31:24;;;;;;;2.00;1.67;;;3.70;99.90;;;;;;4955355;29;20199;-86
2022/01/08 02:33:50;;;;;;;1.50;1.40;;;3.70;99.90;;;;;;4953723;28;20215;-85
2022/01/08 02:36:16;;;;;;;1.40;1.30;;;3.60;99.90;;;;;;4958273;28;20203;-85
2022/01/08 02:38:42;;;;;;;3.70;1.50;;;3.50;99.90;;;;;;4956103;29;20199;-85
2022/01/08 02:41:08;;;;;;;4.63;1.87;;;3.50;99.90;;;;;;4954889;28;20209;-86
2022/01/08 02:43:40;;;;;;;3.00;1.53;;;3.40;99.90;;;;;;4958408;28;20231;-86
2022/01/08 02:46:06;;;;;;;1.83;1.43;;;3.50;99.90;;;;;;4957117;28;20283;-85
2022/01/08 02:48:32;;;;;;;1.43;1.33;;;3.50;99.90;;;;;;4958040;28;20204;-85
2022/01/08 02:50:58;;;;;;;1.53;1.27;;;3.50;99.90;;;;;;4958079;28;20220;-85
2022/01/08 02:53:23;;;;;;;1.17;1.13;;;3.40;99.90;;;;;;4961086;28;20634;-84
2022/01/08 02:55:50;;;;;;;1.40;1.30;;;3.40;99.90;;;;;;4958569;28;20239;-86
2022/01/08 02:58:15;;;;;;;1.90;1.80;;;3.30;99.90;;;;;;4956220;28;20193;-84
2022/01/08 03:00:41;;;;;;;2.23;1.40;;;3.40;99.90;;;;;;4962869;29;20718;-85
2022/01/08 03:03:07;;;;;;;2.17;1.20;;;3.30;99.90;;;;;;4963103;28;20559;-85
2022/01/08 03:05:33;;;;;;;1.90;1.23;;;3.30;99.90;;;;;;4958335;28;20238;-84
2022/01/08 03:07:58;;;;;;;1.77;1.40;;;3.40;99.90;;;;;;4960545;29;20286;-85
2022/01/08 03:10:24;;;;;;;1.67;1.23;;;3.40;99.90;;;;;;4958185;28;20198;-85
2022/01/08 03:12:50;;;;;;;1.97;1.33;;;3.30;99.90;;;;;;4961001;28;20199;-85
2022/01/08 03:15:21;;;;;;;2.10;1.70;;;3.30;99.90;;;;;;4970208;28;20180;-84
2022/01/08 03:17:47;;;;;;;2.33;1.53;;;3.30;99.90;;;;;;4972079;28;20179;-84
2022/01/08 03:20:14;;;;;;;1.30;1.20;;;3.30;99.90;;;;;;4955838;28;20210;-85
2022/01/08 03:22:43;;;;;;;2.03;1.40;;;3.30;99.90;;;;;;4950313;29;20200;-85
2022/01/08 03:25:09;;;;;;;2.70;1.73;;;3.30;99.90;;;;;;4962401;28;20219;-84
2022/01/08 03:27:35;;;;;;;2.33;1.50;;;3.50;99.90;;;;;;4961508;28;20544;-85
2022/01/08 03:30:04;;;;;;;1.30;1.20;;;3.50;99.90;;;;;;4951611;29;20192;-84
2022/01/08 03:32:30;;;;;;;1.63;1.53;;;3.50;99.90;;;;;;4956705;28;20203;-85
2022/01/08 03:34:56;;;;;;;1.97;1.50;;;3.40;99.90;;;;;;4960199;29;20207;-85
2022/01/08 03:37:22;;;;;;;1.57;1.40;;;3.50;99.90;;;;;;4961868;28;20663;-85
2022/01/08 03:39:47;;;;;;;2.40;1.30;;;3.40;99.90;;;;;;4957053;29;20222;-85
2022/01/08 03:42:13;;;;;;;2.07;1.87;;;3.40;99.90;;;;;;4956300;28;20279;-85
2022/01/08 03:44:39;;;;;;;2.23;1.40;;;3.50;99.90;;;;;;4961318;28;20349;-84
2022/01/08 03:49:49;;;;;;;2.17;1.40;;;3.30;99.90;;;;;;4958784;28;20184;-85
2022/01/08 03:52:15;;;;;;;1.47;1.30;;;3.20;99.90;;;;;;4958648;28;20202;-85
2022/01/08 03:54:41;;;;;;;1.33;1.30;;;3.10;99.90;;;;;;4947598;28;20274;-85
2022/01/08 03:57:07;;;;;;;1.80;1.60;;;3.00;99.90;;;;;;4954192;29;20208;-84
2022/01/08 03:59:34;;;;;;;2.17;1.33;;;2.80;99.90;;;;;;4962112;28;20198;-84
2022/01/08 04:02:00;;;;;;;2.70;1.30;;;2.90;99.90;;;;;;4960440;28;20226;-84
2022/01/08 04:04:25;;;;;;;3.20;1.30;;;2.80;99.90;;;;;;4955971;28;20582;-84
2022/01/08 04:06:51;;;;;;;2.37;1.60;;;2.80;99.90;;;;;;4962557;28;20310;-84
2022/01/08 04:09:17;;;;;;;1.43;1.33;;;2.70;99.90;;;;;;4960913;28;20382;-83
2022/01/08 04:11:43;;;;;;;3.50;1.57;;;2.80;99.90;;;;;;4950889;28;20192;-84
2022/01/08 04:14:10;;;;;;;1.63;1.50;;;2.80;99.90;;;;;;4958699;28;20270;-85
2022/01/08 04:16:41;;;;;;;1.70;1.60;;;2.80;99.90;;;;;;4957017;29;20200;-84
2022/01/08 04:19:07;;;;;;;1.57;1.47;;;2.80;99.90;;;;;;4957536;28;20192;-84
2022/01/08 04:24:02;;;;;;;2.20;1.90;;;2.80;99.90;;;;;;4959306;28;20281;-84
2022/01/08 04:26:28;;;;;;;2.27;1.60;;;2.80;99.90;;;;;;4952466;29;20188;-84
2022/01/08 04:28:55;;;;;;;1.73;1.60;;;2.90;99.90;;;;;;4959826;29;20223;-84
2022/01/08 04:31:22;;;;;;;2.43;1.60;;;3.00;99.90;;;;;;4958726;28;20628;-83
2022/01/08 04:33:48;;;;;;;2.07;1.97;;;3.00;99.90;;;;;;4958530;28;20371;-84
2022/01/08 04:36:14;;;;;;;2.53;1.80;;;3.10;99.90;;;;;;4952117;28;20539;-84
2022/01/08 04:38:40;;;;;;;2.70;1.77;;;3.10;99.90;;;;;;4945330;29;20203;-84
2022/01/08 04:41:06;;;;;;;3.13;1.80;;;3.20;99.90;;;;;;4957240;29;20204;-84
2022/01/08 04:43:33;;;;;;;2.10;1.43;;;3.20;99.90;;;;;;4960655;28;20234;-84
2022/01/08 04:45:59;;;;;;;1.77;1.50;;;3.10;99.90;;;;;;4960807;28;20203;-83
2022/01/08 04:48:24;;;;;;;1.67;1.57;;;3.20;99.90;;;;;;4964479;28;20199;-85
2022/01/08 04:50:50;;;;;;;1.57;1.47;;;3.40;99.90;;;;;;4956246;29;20199;-84
2022/01/08 04:53:16;;;;;;;1.50;1.40;;;3.40;99.90;;;;;;4965899;28;20692;-86
2022/01/08 04:55:42;;;;;;;1.50;1.40;;;3.40;99.90;;;;;;4966463;28;20195;-85
2022/01/08 04:58:08;;;;;;;1.20;1.20;;;3.50;99.90;;;;;;4965874;28;20201;-84
2022/01/08 05:00:36;;;;;;;1.20;1.20;;;3.50;99.90;;;;;;4959270;28;20203;-84
2022/01/08 05:03:03;;;;;;;1.37;1.27;;;3.60;99.90;;;;;;4961247;28;20198;-85
2022/01/08 05:05:28;;;;;;;0.90;0.80;;;3.60;99.90;;;;;;4958111;28;20239;-85
2022/01/08 05:07:56;;;;;;;0.90;0.90;;;3.60;99.90;;;;;;4960313;29;20199;-84
2022/01/08 05:10:21;;;;;;;0.70;0.70;;;3.60;99.90;;;;;;4961500;28;20202;-84
2022/01/08 05:12:47;;;;;;;0.80;0.80;;;3.50;99.90;;;;;;4960158;28;20943;-85
2022/01/08 05:15:15;;;;;;;0.60;0.60;;;3.60;99.90;;;;;;4957398;29;20327;-84
2022/01/08 05:17:42;;;;;;;1.40;0.90;;;3.50;99.90;;;;;;4961986;29;20196;-84
2022/01/08 05:20:11;;;;;;;0.53;0.53;;;3.60;99.90;;;;;;4958229;28;20220;-85
2022/01/08 05:25:13;;;;;;;0.60;0.60;;;3.60;99.90;;;;;;4960443;29;20212;-85
2022/01/08 05:27:39;;;;;;;0.50;0.50;;;3.60;99.90;;;;;;4960928;28;20247;-85
2022/01/08 05:30:06;;;;;;;0.50;0.50;;;3.60;99.90;;;;;;4959810;28;20203;-84
2022/01/08 05:32:32;;;;;;;1.30;0.50;;;3.60;99.90;;;;;;4956877;29;20250;-85
2022/01/08 05:34:58;;;;;;;0.70;0.70;;;3.50;99.90;;;;;;4956858;28;20285;-85
2022/01/08 05:37:24;;;;;;;4.23;3.47;;;3.60;99.90;;;;;;4960294;28;20191;-85
2022/01/08 05:39:51;;;;;;;7.70;7.00;;;3.60;99.90;;;;;;4961598;28;20191;-85
2022/01/08 05:42:17;;;;;;;4.57;4.17;;;3.70;99.90;;;;;;4961385;29;20233;-85
2022/01/08 05:44:43;;;;;;;0.80;0.80;;;3.80;99.90;;;;;;4962813;28;20628;-84
2022/01/08 05:47:09;;;;;;;5.47;5.10;;;3.70;99.90;;;;;;4958541;29;20801;-85
2022/01/08 05:49:35;;;;;;;2.57;2.37;;;3.70;99.90;;;;;;4961775;28;20188;-85
2022/01/08 05:52:01;;;;;;;1.53;1.43;;;3.60;99.90;;;;;;4962184;28;20740;-85
2022/01/08 05:54:27;;;;;;;1.60;1.50;;;3.50;99.90;;;;;;4961895;28;20376;-84
2022/01/08 05:56:53;;;;;;;0.83;0.77;;;3.60;99.90;;;;;;4956674;28;20834;-84
2022/01/08 05:59:21;;;;;;;1.17;1.13;;;3.50;99.90;;;;;;4957328;29;20212;-85
2022/01/08 06:01:47;;;;;;;0.80;0.80;;;3.50;99.90;;;;;;4961381;28;20263;-85
2022/01/08 06:04:13;;;;;;;1.13;1.13;;;3.40;99.90;;;;;;4961293;28;20333;-85
2022/01/08 06:06:40;;;;;;;2.37;1.07;;;3.40;99.90;;;;;;4962492;29;20200;-84
2022/01/08 06:09:06;;;;;;;1.00;1.00;;;3.30;99.90;;;;;;4962219;29;20188;-85
2022/01/08 06:11:32;;;;;;;1.07;0.80;;;3.30;99.90;;;;;;4958428;29;20188;-85
2022/01/08 06:13:58;;;;;;;1.90;1.10;;;3.30;99.90;;;;;;4961366;28;20251;-85
2022/01/08 06:16:24;;;;;;;0.97;0.90;;;3.20;99.90;;;;;;4962174;28;20203;-85
2022/01/08 06:18:49;;;;;;;1.20;1.10;;;3.10;99.90;;;;;;4959907;28;20669;-85
2022/01/08 06:21:15;;;;;;;1.40;1.00;;;3.10;99.90;;;;;;4960081;28;20223;-85
2022/01/08 06:23:41;;;;;;;1.10;1.00;;;3.10;99.90;;;;;;4960310;28;21496;-85
2022/01/08 06:26:08;;;;;;;1.23;0.80;;;3.20;99.90;;;;;;4974401;28;20210;-84
2022/01/08 06:28:34;;;;;;;1.10;0.83;;;3.30;99.90;;;;;;4958087;29;20187;-85
2022/01/08 06:31:00;;;;;;;1.37;1.00;;;3.20;99.90;;;;;;4961138;28;20442;-85
2022/01/08 06:33:25;;;;;;;1.30;0.87;;;3.20;99.90;;;;;;4960598;28;20223;-84
2022/01/08 06:35:51;;;;;;;1.60;1.30;;;3.10;99.90;;;;;;4971781;28;20203;-85
2022/01/08 06:38:18;;;;;;;1.63;1.00;;;3.00;99.90;;;;;;4956598;28;20246;-85
2022/01/08 06:40:44;;;;;;;1.13;1.03;;;3.00;99.90;;;;;;4963031;29;20239;-84
2022/01/08 06:43:10;;;;;;;1.70;1.20;;;3.10;99.90;;;;;;4962321;28;20227;-85
2022/01/08 06:45:36;;;;;;;0.97;0.90;;;3.10;99.90;;;;;;4957599;28;20216;-84
2022/01/08 06:48:03;;;;;;;1.10;1.10;;;3.20;99.90;;;;;;4960052;28;20580;-85
2022/01/08 06:50:28;;;;;;;1.03;0.93;;;3.20;99.90;;;;;;4962375;29;20662;-85
2022/01/08 06:52:55;;;;;;;2.00;1.37;;;3.30;99.90;;;;;;4956470;28;20259;-84
2022/01/08 06:55:21;;;;;;;1.20;1.10;;;3.40;99.90;;;;;;4960437;29;20199;-85
2022/01/08 06:57:47;;;;;;;1.50;1.10;;;3.30;99.90;;;;;;4956779;29;20211;-85
2022/01/08 07:00:13;;;;;;;2.73;1.27;;;3.20;99.90;;;;;;4955760;29;20195;-85
2022/01/08 07:02:39;;;;;;;1.43;1.20;;;3.30;99.90;;;;;;4957183;29;20203;-84
2022/01/08 07:05:05;;;;;;;1.50;1.20;;;3.20;99.90;;;;;;4961315;28;20246;-85
2022/01/08 07:07:30;;;;;;;2.77;1.50;;;3.10;99.90;;;;;;4960754;28;20187;-84
2022/01/08 07:09:56;;;;;;;1.33;1.20;;;3.10;99.90;;;;;;4972179;28;20776;-85
2022/01/08 07:12:22;;;;;;;1.50;1.40;;;3.20;99.90;;;;;;4955705;29;20199;-85
2022/01/08 07:14:48;;;;;;;1.23;1.13;;;3.20;99.90;;;;;;4963400;28;20463;-86
2022/01/08 07:17:13;;;;;;;2.20;1.30;;;3.20;99.90;;;;;;4960849;29;20199;-86
2022/01/08 07:19:39;;;;;;;1.60;1.50;;;3.10;99.90;;;;;;4957015;28;20191;-85
2022/01/08 07:22:08;;;;;;;2.23;1.43;;;3.20;99.90;;;;;;4962725;28;20211;-86
2022/01/08 07:24:33;;;;;;;2.07;1.20;;;3.10;99.90;;;;;;4963208;28;20234;-85
2022/01/08 07:26:59;;;;;;;2.63;1.20;;;3.20;99.90;;;;;;4960296;29;20542;-85
2022/01/08 07:29:25;;;;;;;1.60;1.40;;;3.20;99.90;;;;;;4959919;28;20210;-85
2022/01/08 07:31:50;;;;;;;2.53;1.70;;;3.30;99.90;;;;;;4956882;29;20223;-85
2022/01/08 07:34:16;;;;;;;2.33;1.70;;;3.10;99.90;;;;;;4950679;29;20220;-84
2022/01/08 07:36:42;;;;;;;2.07;1.90;;;3.10;99.90;;;;;;4961827;29;20246;-85
2022/01/08 07:39:08;;;;;;;2.87;1.90;;;3.00;99.90;;;;;;4958643;28;20199;-85
2022/01/08 07:41:33;;;;;;;1.73;1.40;;;3.00;99.90;;;;;;4954551;28;20191;-85
2022/01/08 07:43:59;;;;;;;2.13;1.80;;;3.00;99.90;;;;;;4956553;28;20280;-85
2022/01/08 07:46:25;;;;;;;2.47;2.10;;;3.00;99.90;;;;;;4955795;29;20226;-85
2022/01/08 07:48:56;;;;;;;4.07;1.80;;;2.90;99.90;;;;;;4956211;29;20210;-84
2022/01/08 07:51:22;;;;;;;2.00;1.77;;;2.90;99.90;;;;;;4954459;28;20188;-84
2022/01/08 07:53:48;;;;;;;2.90;1.83;;;2.90;99.90;;;;;;4956968;28;20733;-85
2022/01/08 07:56:13;;;;;;;3.20;2.40;;;2.90;99.90;;;;;;4947336;28;20547;-85
2022/01/08 07:58:39;;;;;;;2.83;2.20;;;2.90;99.90;;;;;;4950944;29;20191;-85
2022/01/08 08:01:05;;;;;;;3.73;2.40;;;2.80;99.90;;;;;;4947401;28;20210;-85
2022/01/08 08:03:30;;;;;;;3.53;2.23;;;2.90;99.90;;;;;;4948066;28;20217;-85
2022/01/08 08:05:56;;;;;;;3.20;2.40;;;2.80;99.90;;;;;;4943644;28;20184;-85
2022/01/08 08:08:22;;;;;;;2.77;2.50;;;2.90;99.90;;;;;;4947477;28;20568;-85
2022/01/08 08:10:50;;;;;;;4.17;2.47;;;2.80;99.90;;;;;;4950162;28;20200;-86
2022/01/08 08:13:17;;;;;;;4.57;2.50;;;2.80;99.90;;;;;;4943311;28;20199;-85
2022/01/08 08:15:43;;;;;;;7.03;2.83;;;2.90;99.90;;;;;;4949704;29;20775;-85
2022/01/08 08:18:09;;;;;;;4.57;2.53;;;2.90;99.90;;;;;;4949660;28;20210;-84
2022/01/08 08:20:34;;;;;;;2.90;2.20;;;2.80;99.90;;;;;;4948777;29;20274;-85
2022/01/08 08:23:00;;;;;;;4.63;2.77;;;2.90;99.90;;;;;;4946152;28;20555;-86
2022/01/08 08:25:26;;;;;;;3.93;2.73;;;2.80;99.90;;;;;;4943169;29;20276;-85
2022/01/08 08:27:51;;;;;;;2.53;2.33;;;2.80;99.90;;;;;;4959898;29;20214;-86
2022/01/08 08:30:17;;;;;;;2.90;2.60;;;2.80;99.90;;;;;;4958291;29;20194;-87
2022/01/08 08:32:43;;;;;;;3.13;2.30;;;2.80;99.90;;;;;;4961548;29;20271;-85
2022/01/08 08:35:10;;;;;;;4.87;2.77;;;2.80;99.90;;;;;;4979302;28;20220;-86
2022/01/08 08:37:37;;;;;;;4.70;2.70;;;2.80;99.90;;;;;;4968275;29;20191;-85
2022/01/08 08:40:06;;;;;;;3.57;2.90;;;2.80;99.90;;;;;;4970233;28;20200;-85
2022/01/08 08:42:32;;;;;;;3.27;2.50;;;2.80;99.90;;;;;;4988593;23;20279;-85
2022/01/08 08:44:58;;;;;;;3.87;2.67;;;2.70;99.90;;;;;;4976283;28;20242;-85
2022/01/08 08:47:24;;;;;;;3.83;2.43;;;2.90;99.90;;;;;;4969684;28;20224;-86
2022/01/08 08:49:49;;;;;;;3.07;2.70;;;2.80;99.90;;;;;;4970988;28;20188;-86
2022/01/08 08:52:15;;;;;;;4.60;2.60;;;2.80;99.90;;;;;;4968050;28;20217;-85
2022/01/08 08:54:43;;;;;;;6.27;3.10;;;2.80;99.90;;;;;;4956607;28;20195;-85
2022/01/08 08:57:09;;;;;;;4.83;2.80;;;2.80;99.90;;;;;;4955632;28;20296;-86
2022/01/08 08:59:36;;;;;;;4.80;2.50;;;2.90;99.50;;;;;;4939485;29;20215;-85
2022/01/08 09:02:02;;;;;;;6.40;2.93;;;2.80;99.90;;;;;;4962308;29;20477;-86
2022/01/08 09:04:28;;;;;;;5.37;2.80;;;2.90;99.90;;;;;;4959736;28;20280;-85
2022/01/08 09:06:56;;;;;;;6.60;3.00;;;2.80;99.90;;;;;;4971130;28;20212;-85
2022/01/08 09:09:23;;;;;;;5.23;2.90;;;2.80;99.90;;;;;;4973205;28;20191;-85
2022/01/08 09:11:49;;;;;;;5.67;2.80;;;2.80;99.90;;;;;;4969367;28;20207;-86
2022/01/08 09:14:15;;;;;;;3.97;2.70;;;2.70;99.90;;;;;;4960565;28;20200;-90
2022/01/08 09:16:46;;;;;;;5.63;2.63;;;2.70;99.90;;;;;;4921288;29;20282;-86
2022/01/08 09:19:12;;;;;;;5.97;2.80;;;2.80;99.90;;;;;;4948224;29;20199;-85
2022/01/08 09:21:38;;;;;;;4.97;2.60;;;2.70;99.90;;;;;;4951241;28;20204;-86
2022/01/08 09:24:04;;;;;;;4.87;2.83;;;2.70;99.90;;;;;;4949441;29;20227;-88
2022/01/08 09:26:29;;;;;;;4.47;2.57;;;2.70;99.90;;;;;;4955529;29;20223;-87
2022/01/08 09:28:55;;;;;;;5.00;2.57;;;2.80;99.90;;;;;;4958312;28;20207;-88
2022/01/08 09:31:21;;;;;;;3.90;3.00;;;2.80;99.90;;;;;;4960258;29;20322;-88
2022/01/08 09:33:47;;;;;;;6.50;2.70;;;2.80;99.90;;;;;;4959026;29;20570;-87
2022/01/08 09:36:13;;;;;;;4.27;3.03;;;2.80;99.90;;;;;;4957414;28;20215;-87
2022/01/08 09:38:39;;;;;;;4.27;2.70;;;2.80;99.90;;;;;;4950783;28;20251;-88
2022/01/08 09:41:04;;;;;;;5.10;2.80;;;2.90;99.30;;;;;;4958082;29;20271;-88
2022/01/08 09:43:32;;;;;;;4.47;2.70;;;3.00;98.40;;;;;;4955367;29;20211;-88
2022/01/08 09:45:57;;;;;;;8.83;2.90;;;3.10;97.30;;;;;;4957774;28;20585;-89
2022/01/08 09:48:23;;;;;;;3.43;2.30;;;3.10;98.70;;;;;;4955338;29;20198;-87
2022/01/08 09:50:49;;;;;;;4.93;3.00;;;3.20;98.30;;;;;;4956115;29;20196;-89
2022/01/08 09:53:15;;;;;;;5.93;3.40;;;3.20;98.40;;;;;;4953441;29;20741;-91
2022/01/08 09:55:40;;;;;;;5.70;2.63;;;3.20;98.30;;;;;;4955323;28;20223;-88
2022/01/08 09:58:06;;;;;;;3.57;2.70;;;3.10;99.20;;;;;;4954025;29;20660;-88
2022/01/08 10:00:34;;;;;;;4.10;2.70;;;3.20;98.50;;;;;;4951838;29;20306;-88
2022/01/08 10:03:20;;;;;;;4.10;2.40;;;3.30;99.20;;;;;;4955021;29;20254;-88
2022/01/08 10:05:54;;;;;;;4.67;2.43;;;3.40;98.60;;;;;;4956007;28;20287;-88
2022/01/08 10:08:25;;;;;;;5.67;3.20;;;3.40;98.30;;;;;;4956960;28;20202;-88
2022/01/08 10:10:56;;;;;;;3.60;2.60;;;3.50;97.80;;;;;;4949425;28;20197;-87
2022/01/08 10:13:29;;;;;;;6.30;3.23;;;3.50;97.50;;;;;;4954255;29;20199;-88
2022/01/08 10:18:42;;;;;;;5.40;3.40;;;3.50;98.00;;;;;;4951756;29;20593;-88
2022/01/08 10:21:29;;;;;;;5.70;2.87;;;3.30;97.80;;;;;;4950364;29;20193;-87
2022/01/08 10:23:57;;;;;;;4.80;3.00;;;3.20;99.20;;;;;;4957922;29;20211;-88
2022/01/08 10:26:30;;;;;;;4.57;3.17;;;3.30;99.10;;;;;;4955080;29;20211;-87
2022/01/08 10:29:01;;;;;;;4.03;2.93;;;3.40;98.40;;;;;;4952284;29;20189;-87
2022/01/08 10:31:39;;;;;;;3.93;2.63;;;3.40;98.90;;;;;;4951741;28;20191;-89
2022/01/08 10:34:17;;;;;;;7.03;2.87;;;3.40;98.00;;;;;;4970091;28;20195;-89
2022/01/08 10:36:56;;;;;;;5.73;2.63;;;3.30;99.10;;;;;;4959208;28;20207;-87
2022/01/08 10:39:32;;;;;;;3.27;2.90;;;3.30;98.80;;;;;;4954949;29;20202;-87
2022/01/08 10:42:21;;;;;;;5.33;2.90;;;3.40;98.70;;;;;;4946996;28;20208;-88
2022/01/08 10:44:50;;;;;;;4.23;2.70;;;3.40;98.30;;;;;;4953468;29;20208;-88
2022/01/08 10:47:18;;;;;;;6.13;3.00;;;3.40;97.60;;;;;;4954266;28;20208;-88
2022/01/08 10:49:45;;;;;;;7.93;2.90;;;3.40;98.20;;;;;;4950993;29;20608;-89
2022/01/08 10:52:16;;;;;;;7.30;2.97;;;3.50;96.00;;;;;;4953024;28;20189;-89
2022/01/08 10:54:44;;;;;;;5.10;2.60;;;3.50;97.60;;;;;;4953615;29;20267;-90
2022/01/08 10:57:14;;;;;;;7.53;3.10;;;3.40;97.80;;;;;;4956752;28;20217;-87
2022/01/08 10:59:42;;;;;;;5.03;3.23;;;3.30;98.80;;;;;;4953884;29;20266;-88
2022/01/08 11:02:15;;;;;;;5.77;2.90;;;3.40;97.10;;;;;;4957440;28;20563;-88
2022/01/08 11:04:53;;;;;;;5.30;2.87;;;3.40;96.20;;;;;;4952521;28;20216;-88
2022/01/08 11:07:26;;;;;;;5.17;3.63;;;3.20;96.50;;;;;;4952588;29;20758;-88
2022/01/08 11:09:56;;;;;;;4.13;2.70;;;3.30;97.50;;;;;;4956633;28;21485;-89
2022/01/08 11:12:31;;;;;;;7.50;3.30;;;3.30;97.50;;;;;;4955187;29;20208;-89
2022/01/08 11:17:57;;;;;;;4.40;2.80;;;3.30;96.20;;;;;;4956685;28;20199;-87
2022/01/08 11:20:28;;;;;;;4.27;2.63;;;3.40;95.40;;;;;;4954074;28;20206;-90
2022/01/08 11:22:57;;;;;;;4.00;2.83;;;3.40;95.30;;;;;;4956934;28;20203;-90
2022/01/08 11:25:34;;;;;;;6.40;3.40;;;3.30;95.30;;;;;;4949845;28;20224;-91
2022/01/08 11:28:11;;;;;;;6.50;3.30;;;3.30;95.50;;;;;;4951481;29;20180;-91
2022/01/08 11:30:50;;;;;;;3.33;2.37;;;3.30;95.90;;;;;;4950342;28;20701;-90
2022/01/08 11:33:43;;;;;;;5.63;2.73;;;3.30;96.80;;;;;;4949868;28;20258;-88
2022/01/08 11:36:05;;;;;;;3.10;2.70;;;3.40;98.00;;;;;;4950881;28;20231;-87
2022/01/08 11:38:30;;;;;;;3.57;3.03;;;3.50;97.30;;;;;;4950016;29;20211;-88
2022/01/08 11:40:59;;;;;;;4.07;3.13;;;3.40;98.50;;;;;;4952143;28;20266;-85
2022/01/08 11:43:27;;;;;;;4.33;2.60;;;3.60;99.40;;;;;;4952265;28;20203;-87
2022/01/08 11:45:54;;;;;;;3.93;2.77;;;3.50;99.40;;;;;;4952892;28;20281;-87
2022/01/08 11:48:25;;;;;;;5.13;3.17;;;3.40;99.90;;;;;;4945112;28;20297;-87
2022/01/08 11:50:56;;;;;;;3.40;3.10;;;3.30;99.90;;;;;;4950484;28;20262;-86
2022/01/08 11:53:28;;;;;;;4.03;3.07;;;3.40;99.90;;;;;;4945925;28;20282;-87
2022/01/08 11:55:57;;;;;;;4.10;2.83;;;3.50;99.50;;;;;;4946002;29;20774;-88
2022/01/08 11:58:30;;;;;;;4.97;2.97;;;3.60;99.10;;;;;;4949789;29;20235;-87
2022/01/08 12:01:00;;;;;;;5.27;3.53;;;3.50;99.90;;;;;;4951250;29;20206;-90
2022/01/08 12:03:30;;;;;;;5.97;3.03;;;3.60;99.40;;;;;;4954104;28;20292;-88
2022/01/08 12:05:56;;;;;;;3.77;2.97;;;3.60;98.90;;;;;;4951792;29;20220;-88
2022/01/08 12:09:16;;;;;;;4.37;2.97;;;3.70;98.10;;;;;;4950185;29;20202;-88
2022/01/08 12:11:41;;;;;;;6.13;3.33;;;3.70;97.50;;;;;;4950408;29;20290;-88
2022/01/08 12:14:09;;;;;;;5.20;3.20;;;3.80;96.30;;;;;;4945143;29;20296;-88
2022/01/08 12:16:37;;;;;;;3.20;2.87;;;3.80;95.40;;;;;;4956671;28;20211;-88
2022/01/08 12:19:56;;;;;;;4.00;3.07;;;3.80;97.10;;;;;;4955133;29;20206;-91
2022/01/08 12:22:22;;;;;;;3.87;3.27;;;3.90;96.50;;;;;;4917020;28;20743;-90
2022/01/08 12:24:56;;;;;;;5.37;3.50;;;3.90;96.10;;;;;;4959272;29;20226;-89
2022/01/08 12:27:22;;;;;;;5.97;3.07;;;3.80;96.40;;;;;;4953612;28;20222;-89
2022/01/08 12:29:49;;;;;;;4.80;2.77;;;3.90;94.40;;;;;;4965331;29;20187;-89
2022/01/08 12:32:34;;;;;;;3.10;2.57;;;4.00;94.60;;;;;;4936059;29;20192;-88
2022/01/08 12:35:15;;;;;;;2.90;2.47;;;4.00;93.80;;;;;;4952183;29;20191;-88
2022/01/08 12:37:44;;;;;;;4.07;3.00;;;4.10;90.90;;;;;;4953949;28;20199;-89
2022/01/08 12:40:12;;;;;;;4.97;2.37;;;4.10;91.20;;;;;;4951632;28;20671;-87
2022/01/08 12:42:43;;;;;;;2.97;2.27;;;4.20;89.80;;;;;;4952554;28;20203;-87
2022/01/08 12:45:08;;;;;;;3.57;1.90;;;4.20;89.90;;;;;;4952159;28;20258;-88
2022/01/08 12:47:46;;;;;;;2.30;2.10;;;4.40;86.70;;;;;;4956285;28;20188;-88
2022/01/08 12:50:22;;;;;;;2.80;1.80;;;4.40;87.90;;;;;;4953023;28;20188;-87
2022/01/08 12:53:06;;;;;;;2.50;2.20;;;4.30;86.10;;;;;;4948151;29;20821;-88
2022/01/08 12:55:52;;;;;;;3.00;1.93;;;4.20;86.70;;;;;;4957646;29;20242;-87
2022/01/08 12:58:21;;;;;;;4.03;2.03;;;4.30;87.40;;;;;;4954413;29;20199;-87
2022/01/08 13:00:54;;;;;;;4.03;2.87;;;4.30;87.50;;;;;;4953798;28;20202;-88
2022/01/08 13:03:27;;;;;;;3.20;2.10;;;4.30;87.00;;;;;;4956287;28;20218;-87
2022/01/08 13:05:53;;;;;;;2.90;1.57;;;4.50;84.60;;;;;;4961630;28;20308;-87
2022/01/08 13:08:27;;;;;;;2.00;1.80;;;4.50;85.00;;;;;;4959131;29;20236;-88
2022/01/08 13:11:00;;;;;;;2.47;1.90;;;4.60;83.40;;;;;;4955890;29;20257;-87
2022/01/08 13:13:26;;;;;;;2.47;2.10;;;4.50;85.20;;;;;;4951249;29;20191;-89
2022/01/08 13:15:53;;;;;;;2.03;1.83;;;4.40;85.20;;;;;;4958399;28;20222;-89
2022/01/08 13:18:23;;;;;;;2.93;2.00;;;4.40;84.60;;;;;;4956620;29;20194;-88
2022/01/08 13:21:03;;;;;;;3.13;2.20;;;4.40;84.90;;;;;;4953625;28;20208;-89
2022/01/08 13:23:30;;;;;;;2.27;2.07;;;4.40;84.40;;;;;;4948512;29;20278;-89
2022/01/08 13:25:57;;;;;;;3.10;2.20;;;4.40;84.00;;;;;;4956031;28;20223;-89
2022/01/08 13:28:25;;;;;;;2.63;1.97;;;4.40;84.90;;;;;;4952806;29;20203;-88
2022/01/08 13:30:52;;;;;;;3.93;2.37;;;4.50;83.40;;;;;;4947092;28;20223;-89